createdAt,value
2022-12-03T00:01:01.518Z,102037.34
2022-12-03T00:03:30.708Z,102038.17
2022-12-03T00:05:58.790Z,102035.94
2022-12-03T00:08:26.587Z,102035.29
2022-12-03T00:10:54.512Z,102031.95
2022-12-03T00:13:22.489Z,102035.11
2022-12-03T00:15:50.353Z,102033.02
2022-12-03T00:18:18.172Z,102032.35
2022-12-03T00:20:45.987Z,102033.38
2022-12-03T00:23:14.088Z,102032.38
2022-12-03T00:25:42.064Z,102028.52
2022-12-03T00:28:12.860Z,102030.67
2022-12-03T00:30:40.876Z,102028.45
2022-12-03T00:33:08.760Z,102027.66
2022-12-03T00:35:36.981Z,102027.77
2022-12-03T00:38:05.108Z,102029.16
2022-12-03T00:40:33.033Z,102025.87
2022-12-03T00:43:00.994Z,102024.86
2022-12-03T00:45:29.173Z,102028.31
2022-12-03T00:47:57.549Z,102024.13
2022-12-03T00:50:25.621Z,102022.29
2022-12-03T00:52:53.481Z,102019.50
2022-12-03T00:55:21.663Z,102019.90
2022-12-03T00:57:49.782Z,102018.13
2022-12-03T01:00:18.216Z,102018.99
2022-12-03T01:02:46.049Z,102019.92
2022-12-03T01:05:14.072Z,102021.52
2022-12-03T01:07:42.158Z,102022.30
2022-12-03T01:10:10.848Z,102027.68
2022-12-03T01:12:38.777Z,102025.13
2022-12-03T01:15:07.798Z,102024.69
2022-12-03T01:17:36.522Z,102019.55
2022-12-03T01:20:06.186Z,102021.04
2022-12-03T01:22:34.137Z,102022.27
2022-12-03T01:25:02.522Z,102018.18
2022-12-03T01:27:30.299Z,102019.48
2022-12-03T01:29:58.359Z,102022.45
2022-12-03T01:32:28.507Z,102020.63
2022-12-03T01:34:56.969Z,102021.22
2022-12-03T01:37:26.273Z,102022.38
2022-12-03T01:39:54.485Z,102021.95
2022-12-03T01:42:25.943Z,102022.83
2022-12-03T01:44:57.636Z,102020.48
2022-12-03T01:47:30.325Z,102024.91
2022-12-03T01:50:17.888Z,102023.84
2022-12-03T01:52:46.232Z,102019.05
2022-12-03T01:55:21.171Z,102015.48
2022-12-03T01:57:55.307Z,102011.65
2022-12-03T02:00:27.079Z,102006.30
2022-12-03T02:03:07.601Z,102004.17
2022-12-03T02:05:36.359Z,101996.91
2022-12-03T02:08:26.721Z,101999.06
2022-12-03T02:10:55.480Z,101994.67
2022-12-03T02:13:23.433Z,101993.74
2022-12-03T02:15:51.229Z,101995.09
2022-12-03T02:18:19.469Z,101994.77
2022-12-03T02:20:57.894Z,101988.92
2022-12-03T02:23:33.693Z,101987.46
2022-12-03T02:26:01.618Z,101987.02
2022-12-03T02:28:29.437Z,101985.85
2022-12-03T02:30:57.521Z,101986.34
2022-12-03T02:33:25.854Z,101990.34
2022-12-03T02:35:53.811Z,101990.20
2022-12-03T02:38:25.471Z,101990.92
2022-12-03T02:40:58.057Z,101991.92
2022-12-03T02:43:26.846Z,101991.00
2022-12-03T02:45:58.182Z,101986.13
2022-12-03T02:48:31.069Z,101986.11
2022-12-03T02:51:02.925Z,101988.80
2022-12-03T02:53:42.469Z,101985.96
2022-12-03T02:56:15.377Z,101988.30
2022-12-03T02:58:47.005Z,101991.77
2022-12-03T03:01:15.807Z,101992.95
2022-12-03T03:03:45.799Z,101989.95
2022-12-03T03:06:16.148Z,101993.96
2022-12-03T03:08:44.603Z,101993.11
2022-12-03T03:11:12.632Z,101994.50
2022-12-03T03:13:41.184Z,101989.86
2022-12-03T03:16:09.699Z,101991.13
2022-12-03T03:18:38.245Z,101993.99
2022-12-03T03:21:06.598Z,101991.39
2022-12-03T03:23:35.211Z,101990.19
2022-12-03T03:26:06.774Z,101989.35
2022-12-03T03:28:38.183Z,101990.33
2022-12-03T03:31:09.383Z,101989.59
2022-12-03T03:33:39.754Z,101983.55
2022-12-03T03:36:08.632Z,101982.70
2022-12-03T03:38:38.116Z,101980.46
2022-12-03T03:41:09.112Z,101980.04
2022-12-03T03:43:39.128Z,101980.91
2022-12-03T03:46:07.915Z,101979.10
2022-12-03T03:48:36.337Z,101977.95
2022-12-03T03:51:09.695Z,101978.14
2022-12-03T03:53:43.091Z,101980.13
2022-12-03T03:56:12.408Z,101974.19
2022-12-03T03:58:40.993Z,101972.53
2022-12-03T04:01:12.536Z,101971.48
2022-12-03T04:03:41.268Z,101971.95
2022-12-03T04:06:09.500Z,101968.95
2022-12-03T04:08:37.430Z,101967.63
2022-12-03T04:11:24.031Z,101962.17
2022-12-03T04:13:51.926Z,101964.73
2022-12-03T04:16:19.985Z,101963.76
2022-12-03T04:18:48.377Z,101967.82
2022-12-03T04:21:40.314Z,101966.41
2022-12-03T04:24:10.729Z,101966.90
2022-12-03T04:26:57.418Z,101963.95
2022-12-03T04:29:25.440Z,101962.70
2022-12-03T04:32:12.062Z,101959.69
2022-12-03T04:34:58.517Z,101960.22
2022-12-03T04:37:26.889Z,101952.89
2022-12-03T04:39:55.014Z,101957.11
2022-12-03T04:42:23.181Z,101954.77
2022-12-03T04:44:51.169Z,101956.68
2022-12-03T04:47:21.346Z,101955.34
2022-12-03T04:49:51.295Z,101956.67
2022-12-03T04:52:20.727Z,101953.46
2022-12-03T04:54:49.009Z,101955.67
2022-12-03T04:57:17.514Z,101952.31
2022-12-03T04:59:45.771Z,101957.92
2022-12-03T05:02:13.795Z,101957.02
2022-12-03T05:04:42.998Z,101954.20
2022-12-03T05:07:11.867Z,101956.58
2022-12-03T05:09:39.863Z,101953.76
2022-12-03T05:12:07.786Z,101949.52
2022-12-03T05:14:36.648Z,101945.05
2022-12-03T05:17:04.722Z,101939.67
2022-12-03T05:19:51.847Z,101937.14
2022-12-03T05:22:19.619Z,101938.29
2022-12-03T05:24:47.589Z,101937.05
2022-12-03T05:27:18.871Z,101932.64
2022-12-03T05:29:51.880Z,101926.16
2022-12-03T05:32:19.955Z,101924.58
2022-12-03T05:34:47.936Z,101918.45
2022-12-03T05:37:15.892Z,101923.42
2022-12-03T05:39:43.863Z,101932.23
2022-12-03T05:42:31.717Z,101934.73
2022-12-03T05:45:00.393Z,101931.58
2022-12-03T05:47:28.663Z,101930.40
2022-12-03T05:49:56.637Z,101923.34
2022-12-03T05:52:24.600Z,101924.75
2022-12-03T05:54:53.115Z,101925.47
2022-12-03T05:57:21.236Z,101926.30
2022-12-03T05:59:49.356Z,101924.62
2022-12-03T06:02:17.608Z,101919.81
2022-12-03T06:04:46.098Z,101918.50
2022-12-03T06:07:14.446Z,101918.92
2022-12-03T06:09:42.768Z,101924.33
2022-12-03T06:12:10.919Z,101928.16
2022-12-03T06:14:39.100Z,101923.95
2022-12-03T06:17:07.264Z,101927.16
2022-12-03T06:19:35.075Z,101923.60
2022-12-03T06:22:03.112Z,101922.03
2022-12-03T06:24:30.959Z,101929.13
2022-12-03T06:26:58.921Z,101924.82
2022-12-03T06:29:26.728Z,101924.77
2022-12-03T06:31:54.680Z,101922.70
2022-12-03T06:34:22.750Z,101925.55
2022-12-03T06:36:50.864Z,101922.55
2022-12-03T06:39:18.784Z,101923.18
2022-12-03T06:41:46.584Z,101922.95
2022-12-03T06:44:14.837Z,101925.06
2022-12-03T06:46:42.874Z,101923.30
2022-12-03T06:49:11.408Z,101925.20
2022-12-03T06:51:39.859Z,101926.08
2022-12-03T06:54:08.059Z,101927.02
2022-12-03T06:56:41.707Z,101924.02
2022-12-03T06:59:13.720Z,101926.39
2022-12-03T07:01:41.984Z,101926.45
2022-12-03T07:04:10.269Z,101926.73
2022-12-03T07:06:38.552Z,101924.62
2022-12-03T07:09:06.623Z,101917.56
2022-12-03T07:11:40.633Z,101922.14
2022-12-03T07:14:11.549Z,101928.20
2022-12-03T07:16:40.298Z,101927.56
2022-12-03T07:19:08.225Z,101923.95
2022-12-03T07:21:36.099Z,101917.75
2022-12-03T07:24:04.081Z,101915.84
2022-12-03T07:26:32.469Z,101912.33
2022-12-03T07:29:00.488Z,101913.62
2022-12-03T07:31:28.620Z,101919.09
2022-12-03T07:33:56.472Z,101916.01
2022-12-03T07:36:24.433Z,101913.04
2022-12-03T07:38:52.700Z,101913.42
2022-12-03T07:41:20.782Z,101912.22
2022-12-03T07:43:48.647Z,101908.76
2022-12-03T07:46:17.286Z,101911.98
2022-12-03T07:48:45.303Z,101912.27
2022-12-03T07:51:15.486Z,101913.67
2022-12-03T07:53:43.675Z,101912.02
2022-12-03T07:56:11.651Z,101908.81
2022-12-03T07:58:39.850Z,101909.73
2022-12-03T08:01:08.118Z,101908.10
2022-12-03T08:03:36.404Z,101905.90
2022-12-03T08:06:05.208Z,101902.15
2022-12-03T08:08:33.098Z,101900.79
2022-12-03T08:11:02.250Z,101903.50
2022-12-03T08:13:30.771Z,101902.19
2022-12-03T08:16:06.358Z,101901.25
2022-12-03T08:18:34.290Z,101905.06
2022-12-03T08:21:02.220Z,101905.00
2022-12-03T08:23:30.197Z,101905.48
2022-12-03T08:26:02.184Z,101904.30
2022-12-03T08:28:31.393Z,101906.88
2022-12-03T08:31:13.121Z,101907.40
2022-12-03T08:33:41.936Z,101907.08
2022-12-03T08:36:16.959Z,101911.95
2022-12-03T08:38:50.630Z,101908.30
2022-12-03T08:41:38.818Z,101905.70
2022-12-03T08:44:32.624Z,101906.63
2022-12-03T08:47:18.804Z,101903.09
2022-12-03T08:50:03.080Z,101904.89
2022-12-03T08:52:33.691Z,101900.06
2022-12-03T08:55:30.321Z,101905.15
2022-12-03T08:57:59.723Z,101900.86
2022-12-03T09:00:27.793Z,101899.73
2022-12-03T09:03:01.098Z,101899.10
2022-12-03T09:05:32.600Z,101898.95
2022-12-03T09:08:00.973Z,101895.88
2022-12-03T09:10:29.023Z,101894.36
2022-12-03T09:12:56.963Z,101893.05
2022-12-03T09:15:24.712Z,101892.88
2022-12-03T09:17:52.622Z,101891.83
2022-12-03T09:20:20.767Z,101887.41
2022-12-03T09:22:48.844Z,101887.54
2022-12-03T09:25:17.169Z,101883.96
2022-12-03T09:27:45.933Z,101884.20
2022-12-03T09:30:14.396Z,101882.47
2022-12-03T09:32:42.467Z,101880.02
2022-12-03T09:35:10.755Z,101874.53
2022-12-03T09:37:38.652Z,101869.38
2022-12-03T09:40:07.885Z,101873.26
2022-12-03T09:42:36.487Z,101870.16
2022-12-03T09:45:12.445Z,101868.62
2022-12-03T09:47:43.891Z,101863.09
2022-12-03T09:50:16.200Z,101858.94
2022-12-03T09:52:45.389Z,101856.80
2022-12-03T09:55:24.069Z,101854.82
2022-12-03T09:57:56.962Z,101852.69
2022-12-03T10:00:30.327Z,101852.17
2022-12-03T10:03:03.056Z,101853.27
2022-12-03T10:05:30.961Z,101845.48
2022-12-03T10:08:12.159Z,101843.50
2022-12-03T10:10:42.010Z,101848.51
2022-12-03T10:13:25.270Z,101847.99
2022-12-03T10:15:57.198Z,101853.40
2022-12-03T10:18:30.792Z,101853.67
2022-12-03T10:21:00.284Z,101846.56
2022-12-03T10:23:31.763Z,101847.37
2022-12-03T10:26:03.541Z,101847.60
2022-12-03T10:28:38.055Z,101850.77
2022-12-03T10:31:13.181Z,101846.80
2022-12-03T10:33:44.920Z,101845.13
2022-12-03T10:36:26.791Z,101834.45
2022-12-03T10:39:07.592Z,101827.61
2022-12-03T10:41:36.104Z,101828.71
2022-12-03T10:44:26.129Z,101828.36
2022-12-03T10:47:11.938Z,101827.34
2022-12-03T10:49:42.976Z,101825.14
2022-12-03T10:52:25.992Z,101822.02
2022-12-03T10:54:54.413Z,101824.51
2022-12-03T10:57:23.889Z,101825.44
2022-12-03T10:59:51.895Z,101824.39
2022-12-03T11:02:23.931Z,101819.54
2022-12-03T11:04:52.734Z,101821.38
2022-12-03T11:07:22.533Z,101821.13
2022-12-03T11:09:55.457Z,101815.01
2022-12-03T11:12:27.259Z,101816.17
2022-12-03T11:14:56.519Z,101816.45
2022-12-03T11:17:39.922Z,101813.05
2022-12-03T11:20:22.851Z,101813.18
2022-12-03T11:22:54.979Z,101811.72
2022-12-03T11:25:26.432Z,101811.73
2022-12-03T11:28:13.087Z,101805.39
2022-12-03T11:30:50.781Z,101796.85
2022-12-03T11:33:30.847Z,101798.13
2022-12-03T11:36:04.768Z,101794.33
2022-12-03T11:38:38.561Z,101793.70
2022-12-03T11:41:15.018Z,101789.96
2022-12-03T11:43:58.440Z,101786.38
2022-12-03T11:46:39.431Z,101784.08
2022-12-03T11:49:33.863Z,101779.31
2022-12-03T11:52:19.202Z,101780.67
2022-12-03T11:54:52.716Z,101777.55
2022-12-03T11:57:46.887Z,101773.42
2022-12-03T12:00:24.067Z,101775.27
2022-12-03T12:02:54.687Z,101775.69
2022-12-03T12:05:22.639Z,101776.73
2022-12-03T12:07:51.972Z,101778.83
2022-12-03T12:10:39.002Z,101776.45
2022-12-03T12:13:24.865Z,101779.55
2022-12-03T12:15:53.207Z,101794.41
2022-12-03T12:18:34.494Z,101801.66
2022-12-03T12:21:43.574Z,101797.05
2022-12-03T12:24:47.071Z,101787.65
2022-12-03T12:27:18.110Z,101789.09
2022-12-03T12:29:52.874Z,101787.27
2022-12-03T12:32:30.375Z,101784.60
2022-12-03T12:35:15.188Z,101779.26
2022-12-03T12:37:49.262Z,101777.20
2022-12-03T12:40:20.054Z,101774.30
2022-12-03T12:43:00.159Z,101772.15
2022-12-03T12:45:31.219Z,101770.64
2022-12-03T12:48:32.508Z,101773.87
2022-12-03T12:51:22.211Z,101775.36
2022-12-03T12:53:50.346Z,101775.52
2022-12-03T12:56:32.127Z,101777.64
2022-12-03T12:59:13.027Z,101775.80
2022-12-03T13:01:42.661Z,101776.46
2022-12-03T13:04:22.886Z,101776.13
2022-12-03T13:06:54.025Z,101783.74
2022-12-03T13:09:25.275Z,101779.06
2022-12-03T13:11:54.601Z,101773.13
2022-12-03T13:14:31.795Z,101763.29
2022-12-03T13:17:01.804Z,101757.98
2022-12-03T13:19:39.556Z,101751.03
2022-12-03T13:22:22.605Z,101752.93
2022-12-03T13:24:52.641Z,101752.27
2022-12-03T13:27:23.256Z,101753.91
2022-12-03T13:29:55.784Z,101752.86
2022-12-03T13:32:31.162Z,101753.10
2022-12-03T13:35:16.369Z,101751.52
2022-12-03T13:37:44.915Z,101749.55
2022-12-03T13:40:35.271Z,101745.40
2022-12-03T13:43:04.885Z,101744.04
2022-12-03T13:45:37.847Z,101742.98
2022-12-03T13:48:31.802Z,101739.31
2022-12-03T13:51:12.984Z,101746.81
2022-12-03T13:53:41.152Z,101746.67
2022-12-03T13:56:32.698Z,101748.82
2022-12-03T13:59:01.676Z,101746.09
2022-12-03T14:01:29.978Z,101746.78
2022-12-03T14:03:57.916Z,101744.70
2022-12-03T14:06:25.826Z,101739.05
2022-12-03T14:08:54.578Z,101745.96
2022-12-03T14:11:41.397Z,101739.52
2022-12-03T14:14:09.404Z,101739.80
2022-12-03T14:16:37.619Z,101737.58
2022-12-03T14:19:06.425Z,101741.19
2022-12-03T14:21:34.394Z,101742.32
2022-12-03T14:24:02.284Z,101741.14
2022-12-03T14:26:30.327Z,101741.29
2022-12-03T14:28:58.175Z,101741.53
2022-12-03T14:31:26.006Z,101738.17
2022-12-03T14:33:54.307Z,101736.30
2022-12-03T14:36:22.321Z,101738.77
2022-12-03T14:38:50.440Z,101736.08
2022-12-03T14:41:36.999Z,101733.52
2022-12-03T14:44:05.011Z,101732.77
2022-12-03T14:46:34.061Z,101735.73
2022-12-03T14:49:02.335Z,101737.44
2022-12-03T14:51:30.410Z,101739.46
2022-12-03T14:53:58.292Z,101742.44
2022-12-03T14:56:26.200Z,101739.41
2022-12-03T14:58:54.034Z,101739.30
2022-12-03T15:01:22.160Z,101739.33
2022-12-03T15:03:50.033Z,101738.77
2022-12-03T15:06:17.775Z,101742.27
2022-12-03T15:08:45.762Z,101737.71
2022-12-03T15:11:13.863Z,101745.90
2022-12-03T15:13:41.930Z,101738.13
2022-12-03T15:16:09.956Z,101741.73
2022-12-03T15:18:37.832Z,101741.07
2022-12-03T15:21:05.840Z,101745.13
2022-12-03T15:23:34.880Z,101747.27
2022-12-03T15:26:03.422Z,101752.59
2022-12-03T15:28:31.298Z,101753.35
2022-12-03T15:30:59.552Z,101749.80
2022-12-03T15:33:28.249Z,101750.23
2022-12-03T15:35:56.168Z,101748.67
2022-12-03T15:38:23.983Z,101744.66
2022-12-03T15:40:52.264Z,101743.51
2022-12-03T15:43:20.442Z,101735.95
2022-12-03T15:45:48.445Z,101737.34
2022-12-03T15:48:16.688Z,101738.13
2022-12-03T15:50:44.497Z,101736.88
2022-12-03T15:53:12.506Z,101739.06
2022-12-03T15:55:40.341Z,101738.01
2022-12-03T15:58:08.468Z,101741.64
2022-12-03T16:00:36.531Z,101738.70
2022-12-03T16:03:04.713Z,101741.11
2022-12-03T16:05:32.483Z,101742.52
2022-12-03T16:08:00.438Z,101746.03
2022-12-03T16:10:28.308Z,101743.28
2022-12-03T16:12:56.196Z,101748.36
2022-12-03T16:15:27.294Z,101743.98
2022-12-03T16:17:55.595Z,101744.44
2022-12-03T16:20:23.950Z,101739.69
2022-12-03T16:22:52.266Z,101740.67
2022-12-03T16:25:20.326Z,101742.61
2022-12-03T16:27:48.090Z,101739.46
2022-12-03T16:30:16.089Z,101740.09
2022-12-03T16:32:44.291Z,101738.74
2022-12-03T16:35:12.206Z,101736.17
2022-12-03T16:37:40.592Z,101741.27
2022-12-03T16:40:09.476Z,101742.77
2022-12-03T16:42:37.490Z,101747.94
2022-12-03T16:45:09.293Z,101741.73
2022-12-03T16:47:37.755Z,101742.52
2022-12-03T16:50:10.620Z,101741.92
2022-12-03T16:52:41.095Z,101739.29
2022-12-03T16:55:09.686Z,101741.02
2022-12-03T16:57:38.066Z,101744.55
2022-12-03T17:00:07.872Z,101737.80
2022-12-03T17:02:35.793Z,101737.20
2022-12-03T17:05:04.026Z,101735.79
2022-12-03T17:07:32.209Z,101730.96
2022-12-03T17:10:00.459Z,101731.38
2022-12-03T17:12:42.285Z,101731.09
2022-12-03T17:15:16.594Z,101731.74
2022-12-03T17:17:44.801Z,101735.95
2022-12-03T17:20:14.803Z,101730.74
2022-12-03T17:22:42.865Z,101729.79
2022-12-03T17:25:10.845Z,101725.19
2022-12-03T17:27:44.798Z,101726.85
2022-12-03T17:30:14.154Z,101725.03
2022-12-03T17:32:42.345Z,101723.31
2022-12-03T17:35:11.835Z,101721.15
2022-12-03T17:37:40.820Z,101723.08
2022-12-03T17:40:11.119Z,101722.64
2022-12-03T17:42:38.914Z,101727.42
2022-12-03T17:45:07.741Z,101725.27
2022-12-03T17:47:35.674Z,101727.10
2022-12-03T17:50:04.045Z,101721.93
2022-12-03T17:52:32.128Z,101724.44
2022-12-03T17:55:11.849Z,101724.83
2022-12-03T17:57:42.393Z,101726.66
2022-12-03T18:00:11.328Z,101729.02
2022-12-03T18:02:43.073Z,101723.77
2022-12-03T18:05:11.500Z,101725.10
2022-12-03T18:07:39.391Z,101727.09
2022-12-03T18:10:08.004Z,101721.80
2022-12-03T18:12:36.162Z,101720.44
2022-12-03T18:15:04.450Z,101720.96
2022-12-03T18:17:32.282Z,101717.90
2022-12-03T18:20:00.225Z,101719.73
2022-12-03T18:22:28.743Z,101710.20
2022-12-03T18:24:56.916Z,101708.08
2022-12-03T18:27:25.713Z,101701.07
2022-12-03T18:29:54.029Z,101703.58
2022-12-03T18:32:30.151Z,101710.40
2022-12-03T18:34:58.443Z,101716.65
2022-12-03T18:37:28.910Z,101710.45
2022-12-03T18:39:58.317Z,101708.40
2022-12-03T18:42:26.889Z,101708.17
2022-12-03T18:44:56.560Z,101700.66
2022-12-03T18:47:28.474Z,101702.57
2022-12-03T18:49:57.425Z,101704.61
2022-12-03T18:52:26.300Z,101704.60
2022-12-03T18:54:55.479Z,101703.92
2022-12-03T18:57:23.992Z,101701.20
2022-12-03T18:59:52.068Z,101701.19
2022-12-03T19:02:54.220Z,101700.24
2022-12-03T19:05:12.274Z,101707.39
2022-12-03T19:07:40.142Z,101703.98
2022-12-03T19:10:09.026Z,101702.09
2022-12-03T19:12:37.950Z,101710.81
2022-12-03T19:15:06.986Z,101707.64
2022-12-03T19:17:34.933Z,101709.73
2022-12-03T19:20:05.464Z,101709.27
2022-12-03T19:22:33.507Z,101705.58
2022-12-03T19:25:01.974Z,101706.89
2022-12-03T19:27:31.236Z,101707.05
2022-12-03T19:29:59.130Z,101708.03
2022-12-03T19:32:27.151Z,101710.48
2022-12-03T19:34:55.375Z,101713.36
2022-12-03T19:37:23.436Z,101713.64
2022-12-03T19:39:54.325Z,101712.07
2022-12-03T19:42:22.799Z,101715.61
2022-12-03T19:44:50.788Z,101713.34
2022-12-03T19:47:18.809Z,101716.94
2022-12-03T19:49:46.679Z,101715.41
2022-12-03T19:52:14.644Z,101712.79
2022-12-03T19:54:42.612Z,101715.05
2022-12-03T19:57:10.686Z,101713.48
2022-12-03T19:59:38.770Z,101709.71
2022-12-03T20:02:06.720Z,101710.08
2022-12-03T20:04:35.207Z,101707.52
2022-12-03T20:07:04.304Z,101709.39
2022-12-03T20:09:32.484Z,101714.02
2022-12-03T20:12:00.448Z,101713.94
2022-12-03T20:14:28.521Z,101710.40
2022-12-03T20:16:56.873Z,101711.35
2022-12-03T20:19:25.176Z,101708.42
2022-12-03T20:21:56.431Z,101704.17
2022-12-03T20:24:29.010Z,101706.91
2022-12-03T20:26:57.182Z,101708.85
2022-12-03T20:29:25.160Z,101710.95
2022-12-03T20:31:53.347Z,101714.00
2022-12-03T20:34:21.396Z,101705.48
2022-12-03T20:36:49.676Z,101708.37
2022-12-03T20:39:17.640Z,101707.00
2022-12-03T20:41:45.736Z,101708.64
2022-12-03T20:44:14.203Z,101702.28
2022-12-03T20:46:42.463Z,101708.20
2022-12-03T20:49:10.707Z,101703.14
2022-12-03T20:51:38.843Z,101700.06
2022-12-03T20:54:06.797Z,101702.14
2022-12-03T20:56:39.606Z,101704.23
2022-12-03T20:59:11.138Z,101702.05
2022-12-03T21:01:40.463Z,101698.39
2022-12-03T21:04:09.537Z,101695.21
2022-12-03T21:06:37.810Z,101692.66
2022-12-03T21:09:07.388Z,101695.55
2022-12-03T21:11:38.924Z,101697.73
2022-12-03T21:14:07.870Z,101693.10
2022-12-03T21:17:07.212Z,101692.08
2022-12-03T21:19:27.770Z,101691.16
2022-12-03T21:21:55.742Z,101691.70
2022-12-03T21:24:23.743Z,101687.34
2022-12-03T21:26:52.014Z,101690.03
2022-12-03T21:29:19.842Z,101688.86
2022-12-03T21:31:47.716Z,101688.48
2022-12-03T21:34:16.137Z,101687.73
2022-12-03T21:36:44.059Z,101685.73
2022-12-03T21:39:12.137Z,101685.73
2022-12-03T21:41:40.307Z,101682.02
2022-12-03T21:44:28.252Z,101680.44
2022-12-03T21:47:10.205Z,101670.83
2022-12-03T21:49:42.120Z,101667.95
2022-12-03T21:52:10.795Z,101668.41
2022-12-03T21:54:38.693Z,101672.89
2022-12-03T21:57:06.550Z,101669.55
2022-12-03T21:59:34.411Z,101667.17
2022-12-03T22:02:02.477Z,101671.98
2022-12-03T22:04:30.891Z,101669.94
2022-12-03T22:06:58.917Z,101673.29
2022-12-03T22:09:27.158Z,101671.38
2022-12-03T22:11:57.048Z,101666.61
2022-12-03T22:14:25.275Z,101665.75
2022-12-03T22:16:53.562Z,101660.54
2022-12-03T22:19:25.916Z,101659.20
2022-12-03T22:21:53.700Z,101659.86
2022-12-03T22:24:21.673Z,101659.55
2022-12-03T22:26:50.065Z,101657.39
2022-12-03T22:29:18.083Z,101652.21
2022-12-03T22:31:46.091Z,101651.30
2022-12-03T22:34:13.968Z,101648.51
2022-12-03T22:36:41.787Z,101648.86
2022-12-03T22:39:09.671Z,101645.70
2022-12-03T22:41:37.563Z,101648.95
2022-12-03T22:44:05.584Z,101642.18
2022-12-03T22:46:33.673Z,101641.26
2022-12-03T22:49:06.816Z,101645.37
2022-12-03T22:51:35.313Z,101645.31
2022-12-03T22:54:03.969Z,101652.84
2022-12-03T22:56:32.528Z,101653.69
2022-12-03T22:59:00.732Z,101649.93
2022-12-03T23:01:30.548Z,101647.48
2022-12-03T23:03:59.996Z,101645.48
2022-12-03T23:06:29.692Z,101643.19
2022-12-03T23:08:59.268Z,101642.13
2022-12-03T23:11:29.384Z,101637.17
2022-12-03T23:14:01.036Z,101636.48
2022-12-03T23:16:32.686Z,101633.20
2022-12-03T23:19:01.713Z,101631.09
2022-12-03T23:21:32.960Z,101629.02
2022-12-03T23:24:02.865Z,101627.29
2022-12-03T23:26:35.465Z,101627.09
2022-12-03T23:29:05.489Z,101619.88
2022-12-03T23:31:34.386Z,101617.10
2022-12-03T23:34:02.941Z,101611.61
2022-12-03T23:36:33.308Z,101606.88
2022-12-03T23:39:01.319Z,101602.87
2022-12-03T23:41:29.492Z,101599.09
2022-12-03T23:43:57.682Z,101596.58
2022-12-03T23:46:28.689Z,101597.64
2022-12-03T23:48:59.511Z,101587.97
2022-12-03T23:51:27.632Z,101585.23
2022-12-03T23:53:56.612Z,101585.45
2022-12-03T23:56:27.468Z,101581.42
2022-12-03T23:58:57.410Z,101581.77
